sensor_id;sensor_type;location;lat;lon;timestamp;pressure;altitude;pressure_sealevel;temperature;humidity
63493;BME280;49638;47.526;10.028;2023-02-10T00:01:36;93152.34;;;-4.36;74.65
63493;BME280;49638;47.526;10.028;2023-02-10T00:04:36;93174.75;;;-4.37;75.05
63493;BME280;49638;47.526;10.028;2023-02-10T00:07:37;93162.78;;;-4.49;75.54
63493;BME280;49638;47.526;10.028;2023-02-10T00:10:37;93170.31;;;-4.46;75.63
63493;BME280;49638;47.526;10.028;2023-02-10T00:13:38;93177.94;;;-4.44;75.59
63493;BME280;49638;47.526;10.028;2023-02-10T00:16:39;93152.72;;;-4.63;75.51
63493;BME280;49638;47.526;10.028;2023-02-10T00:19:39;93180.84;;;-4.49;76.00
63493;BME280;49638;47.526;10.028;2023-02-10T00:22:39;93188.16;;;-4.54;75.07
63493;BME280;49638;47.526;10.028;2023-02-10T00:25:40;93174.91;;;-4.72;75.93
63493;BME280;49638;47.526;10.028;2023-02-10T00:28:40;93186.84;;;-4.71;75.83
63493;BME280;49638;47.526;10.028;2023-02-10T00:31:41;93200.78;;;-4.62;76.19
63493;BME280;49638;47.526;10.028;2023-02-10T00:34:41;93209.25;;;-4.60;76.18
63493;BME280;49638;47.526;10.028;2023-02-10T00:37:41;93209.00;;;-4.57;76.32
63493;BME280;49638;47.526;10.028;2023-02-10T00:40:42;93207.47;;;-4.60;75.59
63493;BME280;49638;47.526;10.028;2023-02-10T00:43:43;93211.59;;;-4.68;75.53
63493;BME280;49638;47.526;10.028;2023-02-10T00:46:44;93199.72;;;-4.82;76.03
63493;BME280;49638;47.526;10.028;2023-02-10T00:49:44;93226.22;;;-4.69;76.48
63493;BME280;49638;47.526;10.028;2023-02-10T00:52:44;93223.53;;;-4.67;76.45
63493;BME280;49638;47.526;10.028;2023-02-10T00:55:45;93220.25;;;-4.69;76.01
63493;BME280;49638;47.526;10.028;2023-02-10T00:58:46;93199.81;;;-4.95;75.96
63493;BME280;49638;47.526;10.028;2023-02-10T01:01:46;93229.38;;;-4.77;76.16
63493;BME280;49638;47.526;10.028;2023-02-10T01:04:46;93216.47;;;-4.88;75.81
63493;BME280;49638;47.526;10.028;2023-02-10T01:07:46;93210.59;;;-5.01;76.09
63493;BME280;49638;47.526;10.028;2023-02-10T01:10:47;93232.41;;;-4.94;76.12
63493;BME280;49638;47.526;10.028;2023-02-10T01:13:47;93246.22;;;-4.95;76.54
63493;BME280;49638;47.526;10.028;2023-02-10T01:16:47;93233.06;;;-5.03;75.65
63493;BME280;49638;47.526;10.028;2023-02-10T01:19:48;93229.19;;;-5.09;76.64
63493;BME280;49638;47.526;10.028;2023-02-10T01:22:51;93244.06;;;-5.12;76.48
63493;BME280;49638;47.526;10.028;2023-02-10T01:25:51;93246.06;;;-5.16;76.13
63493;BME280;49638;47.526;10.028;2023-02-10T01:28:52;93248.25;;;-5.22;76.22
63493;BME280;49638;47.526;10.028;2023-02-10T01:31:52;93242.88;;;-5.19;76.59
63493;BME280;49638;47.526;10.028;2023-02-10T01:34:53;93250.88;;;-5.11;77.24
63493;BME280;49638;47.526;10.028;2023-02-10T01:37:53;93234.69;;;-5.13;76.59
63493;BME280;49638;47.526;10.028;2023-02-10T01:40:54;93254.16;;;-5.09;76.65
63493;BME280;49638;47.526;10.028;2023-02-10T01:44:00;93246.16;;;-5.17;76.29
63493;BME280;49638;47.526;10.028;2023-02-10T01:47:00;93250.50;;;-5.18;76.75
63493;BME280;49638;47.526;10.028;2023-02-10T01:50:01;93256.03;;;-5.11;77.14
63493;BME280;49638;47.526;10.028;2023-02-10T01:53:01;93250.41;;;-5.05;77.50
63493;BME280;49638;47.526;10.028;2023-02-10T01:56:02;93226.03;;;-5.12;77.01
63493;BME280;49638;47.526;10.028;2023-02-10T01:59:03;93254.41;;;-5.01;76.95
63493;BME280;49638;47.526;10.028;2023-02-10T02:02:04;93271.06;;;-4.94;76.98
63493;BME280;49638;47.526;10.028;2023-02-10T02:05:15;93255.38;;;-4.91;77.21
63493;BME280;49638;47.526;10.028;2023-02-10T02:08:20;93259.72;;;-4.91;76.48
63493;BME280;49638;47.526;10.028;2023-02-10T02:11:40;93258.19;;;-4.83;76.60
63493;BME280;49638;47.526;10.028;2023-02-10T02:15:02;93242.13;;;-4.86;75.94
63493;BME280;49638;47.526;10.028;2023-02-10T02:28:20;93258.31;;;-4.84;77.13
63493;BME280;49638;47.526;10.028;2023-02-10T02:31:48;93249.72;;;-4.96;76.27
63493;BME280;49638;47.526;10.028;2023-02-10T02:34:57;93251.63;;;-4.98;76.65
63493;BME280;49638;47.526;10.028;2023-02-10T02:37:59;93273.91;;;-4.86;77.07
63493;BME280;49638;47.526;10.028;2023-02-10T02:40:59;93276.25;;;-4.83;76.80
63493;BME280;49638;47.526;10.028;2023-02-10T02:44:02;93251.84;;;-5.01;76.49
63493;BME280;49638;47.526;10.028;2023-02-10T02:47:29;93274.03;;;-4.87;76.17
63493;BME280;49638;47.526;10.028;2023-02-10T02:54:16;93268.16;;;-4.89;76.26
63493;BME280;49638;47.526;10.028;2023-02-10T02:57:36;93261.56;;;-4.93;76.21
63493;BME280;49638;47.526;10.028;2023-02-10T03:00:42;93267.09;;;-4.98;75.68
63493;BME280;49638;47.526;10.028;2023-02-10T03:03:44;93275.16;;;-5.03;76.37
63493;BME280;49638;47.526;10.028;2023-02-10T03:06:44;93266.59;;;-5.03;76.85
63493;BME280;49638;47.526;10.028;2023-02-10T03:09:45;93265.09;;;-4.94;76.78
63493;BME280;49638;47.526;10.028;2023-02-10T03:12:45;93264.06;;;-4.92;76.67
63493;BME280;49638;47.526;10.028;2023-02-10T03:15:45;93273.66;;;-4.94;76.10
63493;BME280;49638;47.526;10.028;2023-02-10T03:18:46;93265.91;;;-4.94;76.54
63493;BME280;49638;47.526;10.028;2023-02-10T03:21:46;93260.50;;;-5.02;76.66
63493;BME280;49638;47.526;10.028;2023-02-10T03:24:47;93246.31;;;-5.08;77.16
63493;BME280;49638;47.526;10.028;2023-02-10T03:27:47;93262.75;;;-4.97;76.73
63493;BME280;49638;47.526;10.028;2023-02-10T03:30:47;93251.25;;;-5.05;77.30
63493;BME280;49638;47.526;10.028;2023-02-10T03:33:49;93253.03;;;-4.94;77.39
63493;BME280;49638;47.526;10.028;2023-02-10T03:36:49;93249.19;;;-4.88;77.27
63493;BME280;49638;47.526;10.028;2023-02-10T03:39:50;93246.69;;;-4.90;76.69
63493;BME280;49638;47.526;10.028;2023-02-10T03:42:50;93255.59;;;-4.94;76.15
63493;BME280;49638;47.526;10.028;2023-02-10T03:45:50;93251.38;;;-4.95;76.46
63493;BME280;49638;47.526;10.028;2023-02-10T03:48:50;93257.47;;;-4.96;76.54
63493;BME280;49638;47.526;10.028;2023-02-10T03:51:51;93267.56;;;-4.93;76.59
63493;BME280;49638;47.526;10.028;2023-02-10T03:54:51;93254.78;;;-4.94;76.57
63493;BME280;49638;47.526;10.028;2023-02-10T03:57:51;93262.91;;;-4.88;76.86
63493;BME280;49638;47.526;10.028;2023-02-10T04:00:52;93258.44;;;-4.86;76.17
63493;BME280;49638;47.526;10.028;2023-02-10T04:03:52;93257.81;;;-5.01;74.96
63493;BME280;49638;47.526;10.028;2023-02-10T04:06:53;93265.88;;;-5.05;75.57
63493;BME280;49638;47.526;10.028;2023-02-10T04:09:53;93273.50;;;-5.04;76.55
63493;BME280;49638;47.526;10.028;2023-02-10T04:12:53;93275.16;;;-5.03;76.63
63493;BME280;49638;47.526;10.028;2023-02-10T04:16:13;93284.84;;;-5.06;75.91
63493;BME280;49638;47.526;10.028;2023-02-10T04:19:13;93273.84;;;-5.08;76.64
63493;BME280;49638;47.526;10.028;2023-02-10T04:22:14;93288.28;;;-5.06;76.73
63493;BME280;49638;47.526;10.028;2023-02-10T04:25:14;93285.09;;;-5.09;76.65
63493;BME280;49638;47.526;10.028;2023-02-10T04:28:14;93283.44;;;-5.10;76.46
63493;BME280;49638;47.526;10.028;2023-02-10T04:31:15;93287.06;;;-5.13;76.51
63493;BME280;49638;47.526;10.028;2023-02-10T04:34:15;93281.78;;;-5.11;77.19
63493;BME280;49638;47.526;10.028;2023-02-10T04:37:15;93263.38;;;-5.18;76.16
63493;BME280;49638;47.526;10.028;2023-02-10T04:40:15;93283.19;;;-5.18;75.57
63493;BME280;49638;47.526;10.028;2023-02-10T04:43:16;93281.47;;;-5.31;75.63
63493;BME280;49638;47.526;10.028;2023-02-10T04:46:16;93286.38;;;-5.39;75.81
63493;BME280;49638;47.526;10.028;2023-02-10T04:49:17;93282.38;;;-5.43;76.04
63493;BME280;49638;47.526;10.028;2023-02-10T04:52:17;93287.75;;;-5.46;76.27
63493;BME280;49638;47.526;10.028;2023-02-10T04:55:17;93270.72;;;-5.49;77.09
63493;BME280;49638;47.526;10.028;2023-02-10T04:58:18;93273.69;;;-5.42;77.05
63493;BME280;49638;47.526;10.028;2023-02-10T05:01:18;93264.97;;;-5.52;76.62
63493;BME280;49638;47.526;10.028;2023-02-10T05:04:19;93251.38;;;-5.54;77.69
63493;BME280;49638;47.526;10.028;2023-02-10T05:07:19;93272.06;;;-5.43;77.51
63493;BME280;49638;47.526;10.028;2023-02-10T05:10:20;93248.81;;;-5.54;76.91
63493;BME280;49638;47.526;10.028;2023-02-10T05:13:20;93257.03;;;-5.49;76.83
63493;BME280;49638;47.526;10.028;2023-02-10T05:16:21;93274.50;;;-5.41;76.98
63493;BME280;49638;47.526;10.028;2023-02-10T05:19:21;93273.19;;;-5.47;77.20
63493;BME280;49638;47.526;10.028;2023-02-10T05:22:21;93279.06;;;-5.45;76.62
63493;BME280;49638;47.526;10.028;2023-02-10T05:25:25;93269.22;;;-5.64;76.59
63493;BME280;49638;47.526;10.028;2023-02-10T05:28:26;93286.19;;;-5.49;77.10
63493;BME280;49638;47.526;10.028;2023-02-10T05:31:27;93269.09;;;-5.50;77.49
63493;BME280;49638;47.526;10.028;2023-02-10T05:34:27;93277.25;;;-5.32;76.95
63493;BME280;49638;47.526;10.028;2023-02-10T05:37:28;93274.28;;;-5.38;76.73
63493;BME280;49638;47.526;10.028;2023-02-10T05:40:29;93296.94;;;-5.31;76.97
63493;BME280;49638;47.526;10.028;2023-02-10T05:43:29;93288.28;;;-5.30;76.84
63493;BME280;49638;47.526;10.028;2023-02-10T05:46:29;93283.34;;;-5.33;77.51
63493;BME280;49638;47.526;10.028;2023-02-10T05:49:30;93273.97;;;-5.34;77.13
63493;BME280;49638;47.526;10.028;2023-02-10T05:52:30;93295.56;;;-5.24;76.74
63493;BME280;49638;47.526;10.028;2023-02-10T05:55:30;93299.03;;;-5.36;76.16
63493;BME280;49638;47.526;10.028;2023-02-10T05:58:31;93304.63;;;-5.42;76.24
63493;BME280;49638;47.526;10.028;2023-02-10T06:01:32;93315.34;;;-5.48;76.33
63493;BME280;49638;47.526;10.028;2023-02-10T06:04:33;93305.94;;;-5.60;76.65
63493;BME280;49638;47.526;10.028;2023-02-10T06:07:33;93318.66;;;-5.46;77.25
63493;BME280;49638;47.526;10.028;2023-02-10T06:10:33;93317.50;;;-5.42;77.79
63493;BME280;49638;47.526;10.028;2023-02-10T06:13:34;93309.72;;;-5.53;77.17
63493;BME280;49638;47.526;10.028;2023-02-10T06:16:34;93318.94;;;-5.51;77.60
63493;BME280;49638;47.526;10.028;2023-02-10T06:19:36;93314.13;;;-5.55;77.92
63493;BME280;49638;47.526;10.028;2023-02-10T06:22:36;93328.66;;;-5.54;76.89
63493;BME280;49638;47.526;10.028;2023-02-10T06:25:36;93341.66;;;-5.56;77.04
63493;BME280;49638;47.526;10.028;2023-02-10T06:28:37;93340.09;;;-5.58;77.89
63493;BME280;49638;47.526;10.028;2023-02-10T06:31:37;93345.09;;;-5.44;78.43
63493;BME280;49638;47.526;10.028;2023-02-10T06:34:37;93343.47;;;-5.45;76.38
63493;BME280;49638;47.526;10.028;2023-02-10T06:37:38;93346.41;;;-5.62;76.34
63493;BME280;49638;47.526;10.028;2023-02-10T06:40:38;93348.38;;;-5.66;77.52
63493;BME280;49638;47.526;10.028;2023-02-10T06:43:38;93355.34;;;-5.55;78.13
63493;BME280;49638;47.526;10.028;2023-02-10T06:46:39;93358.00;;;-5.44;78.48
63493;BME280;49638;47.526;10.028;2023-02-10T06:49:39;93363.97;;;-5.43;77.32
63493;BME280;49638;47.526;10.028;2023-02-10T06:52:39;93371.59;;;-5.42;77.32
63493;BME280;49638;47.526;10.028;2023-02-10T06:55:40;93372.63;;;-5.44;77.28
63493;BME280;49638;47.526;10.028;2023-02-10T06:58:40;93369.88;;;-5.54;75.96
63493;BME280;49638;47.526;10.028;2023-02-10T07:01:41;93360.53;;;-5.68;76.85
63493;BME280;49638;47.526;10.028;2023-02-10T07:04:42;93364.44;;;-5.62;77.66
63493;BME280;49638;47.526;10.028;2023-02-10T07:07:42;93354.53;;;-5.56;78.03
63493;BME280;49638;47.526;10.028;2023-02-10T07:10:43;93364.59;;;-5.40;78.27
63493;BME280;49638;47.526;10.028;2023-02-10T07:13:43;93363.94;;;-5.31;78.46
63493;BME280;49638;47.526;10.028;2023-02-10T07:16:44;93340.22;;;-5.23;77.96
63493;BME280;49638;47.526;10.028;2023-02-10T07:19:44;93347.28;;;-5.14;77.83
63493;BME280;49638;47.526;10.028;2023-02-10T07:22:44;93356.72;;;-5.02;78.30
63493;BME280;49638;47.526;10.028;2023-02-10T07:25:45;93372.00;;;-4.87;78.24
63493;BME280;49638;47.526;10.028;2023-02-10T07:28:45;93368.88;;;-4.80;77.99
63493;BME280;49638;47.526;10.028;2023-02-10T07:31:46;93365.84;;;-4.73;77.80
63493;BME280;49638;47.526;10.028;2023-02-10T07:34:46;93358.72;;;-4.70;77.76
63493;BME280;49638;47.526;10.028;2023-02-10T07:37:49;93355.34;;;-4.59;77.27
63493;BME280;49638;47.526;10.028;2023-02-10T07:40:49;93357.13;;;-4.48;77.24
63493;BME280;49638;47.526;10.028;2023-02-10T07:43:50;93374.53;;;-4.28;77.25
63493;BME280;49638;47.526;10.028;2023-02-10T07:46:53;93344.88;;;-4.34;76.80
63493;BME280;49638;47.526;10.028;2023-02-10T07:49:53;93364.59;;;-4.21;77.04
63493;BME280;49638;47.526;10.028;2023-02-10T07:52:54;93348.13;;;-4.32;76.85
63493;BME280;49638;47.526;10.028;2023-02-10T07:55:57;93362.34;;;-4.26;76.71
63493;BME280;49638;47.526;10.028;2023-02-10T07:58:57;93367.88;;;-4.19;76.99
63493;BME280;49638;47.526;10.028;2023-02-10T08:01:58;93368.84;;;-4.09;76.91
63493;BME280;49638;47.526;10.028;2023-02-10T08:04:59;93370.16;;;-4.03;76.61
63493;BME280;49638;47.526;10.028;2023-02-10T08:07:59;93388.59;;;-3.86;76.26
63493;BME280;49638;47.526;10.028;2023-02-10T08:11:03;93386.16;;;-3.87;76.40
63493;BME280;49638;47.526;10.028;2023-02-10T08:14:03;93386.47;;;-3.92;76.35
63493;BME280;49638;47.526;10.028;2023-02-10T08:17:04;93401.66;;;-3.87;76.41
63493;BME280;49638;47.526;10.028;2023-02-10T08:20:05;93394.22;;;-3.92;75.51
63493;BME280;49638;47.526;10.028;2023-02-10T08:23:06;93391.41;;;-4.00;75.48
63493;BME280;49638;47.526;10.028;2023-02-10T08:26:09;93399.75;;;-3.96;75.57
63493;BME280;49638;47.526;10.028;2023-02-10T08:29:09;93395.16;;;-4.04;75.76
63493;BME280;49638;47.526;10.028;2023-02-10T08:32:10;93398.34;;;-4.00;76.12
63493;BME280;49638;47.526;10.028;2023-02-10T08:35:10;93382.25;;;-4.04;76.29
63493;BME280;49638;47.526;10.028;2023-02-10T08:38:10;93403.88;;;-3.83;76.39
63493;BME280;49638;47.526;10.028;2023-02-10T08:41:11;93409.72;;;-3.81;75.75
63493;BME280;49638;47.526;10.028;2023-02-10T08:44:13;93404.91;;;-3.85;75.97
63493;BME280;49638;47.526;10.028;2023-02-10T08:47:13;93404.34;;;-3.77;76.08
63493;BME280;49638;47.526;10.028;2023-02-10T08:50:14;93390.81;;;-3.81;76.00
63493;BME280;49638;47.526;10.028;2023-02-10T08:53:15;93408.22;;;-3.72;76.41
63493;BME280;49638;47.526;10.028;2023-02-10T08:56:16;93396.97;;;-3.60;76.42
63493;BME280;49638;47.526;10.028;2023-02-10T08:59:17;93404.13;;;-3.52;76.31
63493;BME280;49638;47.526;10.028;2023-02-10T09:02:17;93398.38;;;-3.55;76.58
63493;BME280;49638;47.526;10.028;2023-02-10T09:05:19;93408.47;;;-3.41;76.75
63493;BME280;49638;47.526;10.028;2023-02-10T09:08:19;93378.03;;;-3.49;76.38
63493;BME280;49638;47.526;10.028;2023-02-10T09:11:21;93409.53;;;-3.33;76.24
63493;BME280;49638;47.526;10.028;2023-02-10T09:14:23;93412.69;;;-3.29;76.38
63493;BME280;49638;47.526;10.028;2023-02-10T09:17:23;93400.47;;;-3.27;76.18
63493;BME280;49638;47.526;10.028;2023-02-10T09:20:23;93410.34;;;-3.21;76.64
63493;BME280;49638;47.526;10.028;2023-02-10T09:23:24;93400.47;;;-3.16;76.20
63493;BME280;49638;47.526;10.028;2023-02-10T09:26:24;93402.22;;;-3.05;76.06
63493;BME280;49638;47.526;10.028;2023-02-10T09:29:25;93405.00;;;-2.97;76.07
63493;BME280;49638;47.526;10.028;2023-02-10T09:32:25;93387.03;;;-2.98;76.00
63493;BME280;49638;47.526;10.028;2023-02-10T09:35:25;93400.50;;;-2.83;76.18
63493;BME280;49638;47.526;10.028;2023-02-10T09:38:25;93382.63;;;-2.87;76.14
63493;BME280;49638;47.526;10.028;2023-02-10T09:44:35;93405.16;;;-2.66;76.49
63493;BME280;49638;47.526;10.028;2023-02-10T09:47:51;93412.31;;;-2.58;75.56
63493;BME280;49638;47.526;10.028;2023-02-10T09:51:02;93395.03;;;-2.58;75.78
63493;BME280;49638;47.526;10.028;2023-02-10T09:54:09;93404.28;;;-2.44;75.78
63493;BME280;49638;47.526;10.028;2023-02-10T09:57:32;93403.16;;;-2.30;73.79
63493;BME280;49638;47.526;10.028;2023-02-10T10:00:43;93376.69;;;-2.34;73.97
63493;BME280;49638;47.526;10.028;2023-02-10T10:04:04;93410.69;;;-2.06;73.92
63493;BME280;49638;47.526;10.028;2023-02-10T10:07:33;93413.34;;;-1.97;72.38
63493;BME280;49638;47.526;10.028;2023-02-10T10:10:42;93410.50;;;-1.94;74.12
63493;BME280;49638;47.526;10.028;2023-02-10T10:13:44;93390.53;;;-2.03;74.62
63493;BME280;49638;47.526;10.028;2023-02-10T10:30:58;93386.94;;;-1.60;73.63
63493;BME280;49638;47.526;10.028;2023-02-10T10:37:15;93386.94;;;-1.60;73.65
63493;BME280;49638;47.526;10.028;2023-02-10T10:40:20;93383.84;;;-1.54;74.51
63493;BME280;49638;47.526;10.028;2023-02-10T10:43:29;93379.22;;;-1.50;74.30
63493;BME280;49638;47.526;10.028;2023-02-10T10:46:35;93378.59;;;-1.42;73.87
63493;BME280;49638;47.526;10.028;2023-02-10T10:49:38;93388.03;;;-1.32;73.83
63493;BME280;49638;47.526;10.028;2023-02-10T10:52:40;93384.34;;;-1.29;74.12
63493;BME280;49638;47.526;10.028;2023-02-10T10:55:43;93383.25;;;-1.27;73.94
63493;BME280;49638;47.526;10.028;2023-02-10T10:58:46;93388.19;;;-1.24;74.13
63493;BME280;49638;47.526;10.028;2023-02-10T11:01:49;93379.44;;;-1.23;74.00
63493;BME280;49638;47.526;10.028;2023-02-10T11:05:03;93373.44;;;-1.23;71.24
63493;BME280;49638;47.526;10.028;2023-02-10T11:08:05;93371.03;;;-1.15;73.05
63493;BME280;49638;47.526;10.028;2023-02-10T11:11:07;93359.84;;;-1.15;73.02
63493;BME280;49638;47.526;10.028;2023-02-10T11:14:21;93361.75;;;-1.08;70.99
63493;BME280;49638;47.526;10.028;2023-02-10T11:17:41;93358.19;;;-1.07;72.15
63493;BME280;49638;47.526;10.028;2023-02-10T11:20:55;93358.34;;;-0.99;71.08
63493;BME280;49638;47.526;10.028;2023-02-10T11:23:55;93356.19;;;-0.93;66.99
63493;BME280;49638;47.526;10.028;2023-02-10T11:27:16;93348.81;;;-0.88;67.81
63493;BME280;49638;47.526;10.028;2023-02-10T11:33:30;93347.59;;;-0.84;72.36
63493;BME280;49638;47.526;10.028;2023-02-10T11:36:37;93339.81;;;-0.84;71.62
63493;BME280;49638;47.526;10.028;2023-02-10T11:39:40;93342.16;;;-0.81;72.59
63493;BME280;49638;47.526;10.028;2023-02-10T11:42:46;93346.22;;;-0.79;72.17
63493;BME280;49638;47.526;10.028;2023-02-10T11:45:54;93342.53;;;-0.76;71.77
63493;BME280;49638;47.526;10.028;2023-02-10T11:51:59;93324.09;;;-0.73;71.37
63493;BME280;49638;47.526;10.028;2023-02-10T11:55:01;93323.97;;;-0.62;71.38
63493;BME280;49638;47.526;10.028;2023-02-10T11:58:20;93313.84;;;-0.65;69.62
63493;BME280;49638;47.526;10.028;2023-02-10T12:01:56;93330.53;;;-0.58;71.87
63493;BME280;49638;47.526;10.028;2023-02-10T12:08:19;93313.84;;;-0.65;71.33
63493;BME280;49638;47.526;10.028;2023-02-10T12:14:56;93313.31;;;-0.49;70.85
63493;BME280;49638;47.526;10.028;2023-02-10T12:18:31;93317.81;;;-0.41;68.24
63493;BME280;49638;47.526;10.028;2023-02-10T12:22:02;93310.28;;;-0.35;67.52
63493;BME280;49638;47.526;10.028;2023-02-10T12:32:13;93294.03;;;-0.27;66.48
63493;BME280;49638;47.526;10.028;2023-02-10T12:35:29;93285.00;;;-0.33;68.57
63493;BME280;49638;47.526;10.028;2023-02-10T12:48:59;93274.88;;;-0.26;68.82
63493;BME280;49638;47.526;10.028;2023-02-10T12:52:12;93285.25;;;-0.16;69.46
63493;BME280;49638;47.526;10.028;2023-02-10T12:55:22;93287.97;;;-0.18;69.89
63493;BME280;49638;47.526;10.028;2023-02-10T12:58:51;93294.69;;;-0.15;68.19
63493;BME280;49638;47.526;10.028;2023-02-10T13:02:03;93281.16;;;-0.19;69.53
63493;BME280;49638;47.526;10.028;2023-02-10T13:05:10;93288.25;;;-0.21;70.45
63493;BME280;49638;47.526;10.028;2023-02-10T13:08:19;93281.16;;;-0.19;70.15
63493;BME280;49638;47.526;10.028;2023-02-10T13:11:35;93293.84;;;-0.16;69.13
63493;BME280;49638;47.526;10.028;2023-02-10T13:14:40;93282.25;;;-0.21;71.16
63493;BME280;49638;47.526;10.028;2023-02-10T13:17:44;93280.72;;;-0.24;70.97
63493;BME280;49638;47.526;10.028;2023-02-10T13:23:57;93283.91;;;-0.30;71.58
63493;BME280;49638;47.526;10.028;2023-02-10T13:34:00;93269.59;;;-0.54;70.12
63493;BME280;49638;47.526;10.028;2023-02-10T13:37:08;93283.50;;;-0.45;70.90
63493;BME280;49638;47.526;10.028;2023-02-10T13:40:18;93300.84;;;-0.36;70.82
63493;BME280;49638;47.526;10.028;2023-02-10T13:43:30;93288.25;;;-0.31;69.66
63493;BME280;49638;47.526;10.028;2023-02-10T13:46:31;93302.47;;;-0.25;71.12
63493;BME280;49638;47.526;10.028;2023-02-10T13:49:32;93297.97;;;-0.23;70.91
63493;BME280;49638;47.526;10.028;2023-02-10T13:52:34;93297.69;;;-0.20;70.56
63493;BME280;49638;47.526;10.028;2023-02-10T13:58:35;93297.56;;;-0.28;70.66
63493;BME280;49638;47.526;10.028;2023-02-10T14:01:38;93307.28;;;-0.40;70.84
63493;BME280;49638;47.526;10.028;2023-02-10T14:04:45;93308.38;;;-0.42;71.10
63493;BME280;49638;47.526;10.028;2023-02-10T14:07:48;93301.94;;;-0.38;71.00
63493;BME280;49638;47.526;10.028;2023-02-10T14:14:30;93301.69;;;-0.55;71.12
63493;BME280;49638;47.526;10.028;2023-02-10T14:17:31;93302.91;;;-0.59;71.09
63493;BME280;49638;47.526;10.028;2023-02-10T14:20:37;93303.34;;;-0.73;71.23
63493;BME280;49638;47.526;10.028;2023-02-10T14:23:50;93298.56;;;-0.78;71.39
63493;BME280;49638;47.526;10.028;2023-02-10T14:26:52;93299.94;;;-0.74;71.56
63493;BME280;49638;47.526;10.028;2023-02-10T14:30:00;93305.66;;;-0.70;70.66
63493;BME280;49638;47.526;10.028;2023-02-10T14:33:01;93285.84;;;-0.71;71.15
63493;BME280;49638;47.526;10.028;2023-02-10T14:36:07;93293.66;;;-0.71;70.90
63493;BME280;49638;47.526;10.028;2023-02-10T14:39:14;93287.22;;;-0.67;69.91
63493;BME280;49638;47.526;10.028;2023-02-10T14:42:15;93296.22;;;-0.61;70.79
63493;BME280;49638;47.526;10.028;2023-02-10T14:45:21;93304.59;;;-0.58;70.08
63493;BME280;49638;47.526;10.028;2023-02-10T14:48:23;93299.09;;;-0.55;70.54
63493;BME280;49638;47.526;10.028;2023-02-10T14:51:25;93292.41;;;-0.67;70.65
63493;BME280;49638;47.526;10.028;2023-02-10T14:54:26;93300.88;;;-0.75;70.94
63493;BME280;49638;47.526;10.028;2023-02-10T14:57:27;93309.06;;;-0.79;71.05
63493;BME280;49638;47.526;10.028;2023-02-10T15:00:28;93297.59;;;-0.86;70.96
63493;BME280;49638;47.526;10.028;2023-02-10T15:03:28;93304.28;;;-0.84;70.84
63493;BME280;49638;47.526;10.028;2023-02-10T15:06:30;93286.91;;;-1.03;71.19
63493;BME280;49638;47.526;10.028;2023-02-10T15:09:34;93301.94;;;-0.97;71.20
63493;BME280;49638;47.526;10.028;2023-02-10T15:12:34;93300.41;;;-1.09;69.49
63493;BME280;49638;47.526;10.028;2023-02-10T15:15:48;93309.16;;;-1.10;70.77
63493;BME280;49638;47.526;10.028;2023-02-10T15:18:50;93316.94;;;-1.10;71.74
63493;BME280;49638;47.526;10.028;2023-02-10T15:21:51;93306.69;;;-1.21;71.91
63493;BME280;49638;47.526;10.028;2023-02-10T15:24:52;93311.31;;;-1.34;72.40
63493;BME280;49638;47.526;10.028;2023-02-10T15:27:53;93304.47;;;-1.45;72.32
63493;BME280;49638;47.526;10.028;2023-02-10T15:31:24;93313.03;;;-1.45;71.54
63493;BME280;49638;47.526;10.028;2023-02-10T15:34:28;93309.22;;;-1.40;72.04
63493;BME280;49638;47.526;10.028;2023-02-10T15:37:29;93314.28;;;-1.49;72.31
63493;BME280;49638;47.526;10.028;2023-02-10T15:40:32;93322.06;;;-1.49;71.98
63493;BME280;49638;47.526;10.028;2023-02-10T15:43:47;93325.75;;;-1.41;70.68
63493;BME280;49638;47.526;10.028;2023-02-10T15:46:52;93327.94;;;-1.37;71.64
63493;BME280;49638;47.526;10.028;2023-02-10T15:49:57;93332.16;;;-1.36;71.54
63493;BME280;49638;47.526;10.028;2023-02-10T15:52:58;93322.31;;;-1.52;71.91
63493;BME280;49638;47.526;10.028;2023-02-10T15:55:58;93312.03;;;-1.63;71.96
63493;BME280;49638;47.526;10.028;2023-02-10T15:58:59;93331.81;;;-1.62;72.15
63493;BME280;49638;47.526;10.028;2023-02-10T16:02:02;93340.38;;;-1.71;72.53
63493;BME280;49638;47.526;10.028;2023-02-10T16:05:02;93339.69;;;-1.73;72.41
63493;BME280;49638;47.526;10.028;2023-02-10T16:08:23;93342.91;;;-1.81;70.82
63493;BME280;49638;47.526;10.028;2023-02-10T16:11:23;93340.16;;;-1.89;72.61
63493;BME280;49638;47.526;10.028;2023-02-10T16:14:26;93342.44;;;-1.96;72.78
63493;BME280;49638;47.526;10.028;2023-02-10T16:17:29;93341.47;;;-1.95;72.72
63493;BME280;49638;47.526;10.028;2023-02-10T16:20:32;93320.69;;;-2.04;72.85
63493;BME280;49638;47.526;10.028;2023-02-10T16:23:32;93344.81;;;-2.04;72.90
63493;BME280;49638;47.526;10.028;2023-02-10T16:26:33;93349.91;;;-2.02;72.86
63493;BME280;49638;47.526;10.028;2023-02-10T16:29:33;93339.28;;;-1.99;72.78
63493;BME280;49638;47.526;10.028;2023-02-10T16:32:33;93329.38;;;-2.15;72.71
63493;BME280;49638;47.526;10.028;2023-02-10T16:35:34;93351.28;;;-2.19;73.13
63493;BME280;49638;47.526;10.028;2023-02-10T16:38:34;93348.31;;;-2.35;73.66
63493;BME280;49638;47.526;10.028;2023-02-10T16:41:34;93362.78;;;-2.33;73.52
63493;BME280;49638;47.526;10.028;2023-02-10T16:44:34;93360.06;;;-2.31;73.57
63493;BME280;49638;47.526;10.028;2023-02-10T16:47:35;93363.78;;;-2.24;73.27
63493;BME280;49638;47.526;10.028;2023-02-10T16:50:41;93370.25;;;-2.19;72.64
63493;BME280;49638;47.526;10.028;2023-02-10T16:53:41;93370.75;;;-2.25;72.77
63493;BME280;49638;47.526;10.028;2023-02-10T16:56:43;93378.72;;;-2.17;72.58
63493;BME280;49638;47.526;10.028;2023-02-10T16:59:43;93378.47;;;-2.13;72.42
63493;BME280;49638;47.526;10.028;2023-02-10T17:02:43;93376.38;;;-2.20;72.45
63493;BME280;49638;47.526;10.028;2023-02-10T17:05:44;93376.47;;;-2.21;72.62
63493;BME280;49638;47.526;10.028;2023-02-10T17:08:46;93383.56;;;-2.23;72.76
63493;BME280;49638;47.526;10.028;2023-02-10T17:11:46;93383.56;;;-2.23;72.73
63493;BME280;49638;47.526;10.028;2023-02-10T17:14:47;93381.91;;;-2.24;72.44
63493;BME280;49638;47.526;10.028;2023-02-10T17:17:47;93378.19;;;-2.31;72.39
63493;BME280;49638;47.526;10.028;2023-02-10T17:20:47;93384.50;;;-2.24;72.58